Time;durP1;ratioP1;P1;durP2;ratioP2;P2;SDS_P1;SDS_P2;PMS_P1;PMS_P2;Temp;Humidity;BMP_temperature;BMP_pressure;BME280_temperature;BME280_humidity;BME280_pressure;Samples;Min_cycle;Max_cycle;Signal;HPM_P1;HPM_P2
2022/11/04 00:01:46;;;;;;;1.95;1.30;;;;;;;13.49;87.31;99388.00;5031964;28;20045;-65
2022/11/04 00:04:13;;;;;;;2.28;1.90;;;;;;;13.37;87.79;99377.72;5031378;28;20052;-66
2022/11/04 00:06:39;;;;;;;2.45;1.50;;;;;;;13.35;88.66;99372.72;5031735;28;20041;-66
2022/11/04 00:09:07;;;;;;;1.58;1.17;;;;;;;13.53;87.93;99373.25;5025089;28;20065;-65
2022/11/04 00:14:17;;;;;;;2.35;1.25;;;;;;;13.65;87.48;99366.53;5027297;28;20037;-65
2022/11/04 00:28:41;;;;;;;3.38;1.38;;;;;;;13.53;88.12;99367.84;5030879;28;20029;-65
2022/11/04 00:33:52;;;;;;;3.17;1.30;;;;;;;13.51;89.56;99340.44;5030198;28;20548;-64
2022/11/04 00:36:18;;;;;;;2.80;1.65;;;;;;;13.59;89.33;99349.22;5030809;28;20064;-65
2022/11/04 00:38:43;;;;;;;4.45;1.35;;;;;;;13.61;89.20;99352.28;5030722;28;20025;-65
2022/11/04 00:41:28;;;;;;;2.50;1.52;;;;;;;13.53;88.99;99357.00;5026852;28;20450;-65
2022/11/04 00:43:59;;;;;;;1.90;0.93;;;;;;;13.45;90.32;99369.09;5030045;28;20037;-65
2022/11/04 00:46:26;;;;;;;2.67;1.60;;;;;;;13.47;90.90;99374.13;5027210;28;20106;-66
2022/11/04 00:48:52;;;;;;;1.70;1.08;;;;;;;13.61;89.88;99363.09;5029132;28;20052;-65
2022/11/04 00:51:18;;;;;;;5.15;1.90;;;;;;;13.54;90.08;99349.69;5030594;28;20416;-66
2022/11/04 00:53:44;;;;;;;1.38;1.20;;;;;;;13.57;89.75;99357.75;5030369;28;20030;-66
2022/11/04 00:56:10;;;;;;;1.33;1.10;;;;;;;13.51;90.26;99342.38;5036531;28;20637;-66
2022/11/04 00:58:35;;;;;;;4.10;1.80;;;;;;;13.58;90.37;99339.56;5039476;28;20025;-66
2022/11/04 01:01:06;;;;;;;2.55;1.20;;;;;;;13.65;89.94;99342.19;5043459;28;20080;-66
2022/11/04 01:03:32;;;;;;;;;;;;;;;13.73;89.27;99343.63;5023648;28;20088;-66
2022/11/04 01:05:57;;;;;;;3.67;1.30;;;;;;;13.70;89.67;99341.75;5028317;28;19955;-66
2022/11/04 01:08:22;;;;;;;9.05;1.55;;;;;;;13.66;89.80;99330.19;5044335;28;20481;-65
2022/11/04 01:10:48;;;;;;;3.08;1.30;;;;;;;13.70;89.64;99330.16;5048892;28;20097;-66
2022/11/04 01:13:13;;;;;;;3.08;1.58;;;;;;;13.68;89.93;99330.56;5031557;28;20085;-65
2022/11/04 01:15:39;;;;;;;2.97;1.00;;;;;;;13.52;90.53;99322.25;5033044;28;20025;-66
2022/11/04 01:18:05;;;;;;;4.72;1.85;;;;;;;13.27;92.18;99313.72;5030728;28;20673;-66
2022/11/04 01:20:32;;;;;;;2.92;2.50;;;;;;;13.46;91.91;99308.44;5035509;28;20037;-66
2022/11/04 01:22:57;;;;;;;3.60;1.70;;;;;;;13.44;91.61;99310.00;5036802;28;20037;-65
2022/11/04 01:25:22;;;;;;;2.25;1.50;;;;;;;13.38;92.18;99309.69;5035312;28;20812;-66
2022/11/04 01:27:48;;;;;;;3.42;1.60;;;;;;;13.52;92.09;99312.22;5034762;28;20101;-66
2022/11/04 01:30:14;;;;;;;1.75;1.35;;;;;;;13.35;92.22;99309.75;5029161;28;20034;-65
2022/11/04 01:32:39;;;;;;;3.47;1.65;;;;;;;13.44;93.03;99316.19;5033752;28;20034;-65
2022/11/04 01:35:05;;;;;;;2.92;1.80;;;;;;;13.43;92.79;99308.50;5032058;28;20043;-66
2022/11/04 01:37:30;;;;;;;2.42;1.55;;;;;;;13.54;92.22;99319.91;5046724;28;20077;-66
2022/11/04 01:39:56;;;;;;;3.35;1.55;;;;;;;13.50;92.54;99316.50;5031171;28;20505;-66
2022/11/04 01:42:22;;;;;;;3.47;1.83;;;;;;;13.55;92.07;99305.97;5044955;28;20041;-65
2022/11/04 01:44:54;;;;;;;2.45;1.42;;;;;;;13.66;91.33;99313.19;5034793;28;20116;-65
2022/11/04 01:47:25;;;;;;;4.50;1.55;;;;;;;13.76;91.21;99306.88;5039577;28;20039;-65
2022/11/04 01:49:53;;;;;;;;;;;;;;;13.65;91.33;99304.31;5033955;28;20120;-65
2022/11/04 01:52:26;;;;;;;3.33;1.48;;;;;;;13.47;92.31;99301.84;5036185;28;19916;-66
2022/11/04 01:54:56;;;;;;;6.25;1.50;;;;;;;13.34;92.77;99300.09;5047940;28;20040;-66
2022/11/04 01:57:32;;;;;;;1.75;1.35;;;;;;;13.44;92.81;99299.97;5040751;28;20044;-66
2022/11/04 02:00:00;;;;;;;2.88;1.58;;;;;;;13.38;92.66;99314.34;5043648;28;20044;-66
2022/11/04 02:02:26;;;;;;;2.90;1.40;;;;;;;13.47;92.04;99304.53;5032056;28;20033;-66
2022/11/04 02:04:51;;;;;;;2.00;1.33;;;;;;;13.27;93.25;99302.91;5033347;28;20051;-66
2022/11/04 02:07:16;;;;;;;3.58;1.77;;;;;;;13.25;93.78;99297.13;5043790;28;20127;-66
2022/11/04 02:09:43;;;;;;;2.92;1.48;;;;;;;13.42;92.85;99296.91;5041459;28;20482;-66
2022/11/04 02:14:53;;;;;;;5.28;1.35;;;;;;;13.45;92.17;99296.06;5037706;28;20075;-66
2022/11/04 02:17:19;;;;;;;2.95;1.70;;;;;;;13.49;92.18;99290.63;5038643;28;20033;-66
2022/11/04 02:19:58;;;;;;;3.10;1.83;;;;;;;13.40;93.39;99288.44;5036813;28;20083;-67
2022/11/04 02:23:07;;;;;;;5.07;1.27;;;;;;;13.40;93.34;99288.44;5042202;28;20112;-66
2022/11/04 02:25:54;;;;;;;2.65;1.52;;;;;;;13.54;93.21;99299.06;5037063;28;20036;-66
2022/11/04 02:28:31;;;;;;;3.17;1.70;;;;;;;13.59;93.40;99301.28;5024192;28;20061;-66
2022/11/04 02:31:05;;;;;;;2.95;1.70;;;;;;;13.68;92.39;99305.44;5032881;28;20033;-65
2022/11/04 02:33:55;;;;;;;2.97;1.48;;;;;;;13.46;93.78;99308.44;5032209;28;20037;-66
2022/11/04 02:36:44;;;;;;;4.13;1.63;;;;;;;13.53;94.35;99310.25;5033074;28;20432;-65
2022/11/04 02:39:33;;;;;;;4.28;2.10;;;;;;;13.68;93.52;99314.31;5021874;28;20045;-65
2022/11/04 02:42:18;;;;;;;1.98;1.48;;;;;;;13.51;94.82;99299.84;5031857;28;20041;-65
2022/11/04 02:45:07;;;;;;;3.83;1.70;;;;;;;13.51;94.94;99305.25;5031726;28;20087;-66
2022/11/04 02:47:38;;;;;;;1.90;1.55;;;;;;;13.21;97.40;99309.91;5031459;28;20657;-66
2022/11/04 02:50:10;;;;;;;2.65;1.90;;;;;;;13.08;98.51;99296.19;5031839;28;20041;-66
2022/11/04 02:52:42;;;;;;;7.30;1.58;;;;;;;13.21;98.56;99304.50;5031327;28;20041;-66
2022/11/04 02:55:29;;;;;;;4.68;1.98;;;;;;;13.27;99.02;99302.91;5028732;28;20705;-66
2022/11/04 02:57:59;;;;;;;2.65;1.63;;;;;;;13.17;99.60;99312.66;5032102;28;20124;-66
2022/11/04 03:00:26;;;;;;;4.57;2.40;;;;;;;13.19;100.00;99323.06;5032630;28;20041;-66
2022/11/04 03:02:58;;;;;;;6.40;2.17;;;;;;;13.08;100.00;99319.75;5026570;28;20022;-65
2022/11/04 03:05:33;;;;;;;2.97;1.73;;;;;;;13.12;100.00;99317.75;5030114;28;20033;-66
2022/11/04 03:08:04;;;;;;;3.67;1.80;;;;;;;13.20;100.00;99333.47;5032229;28;20124;-66
2022/11/04 03:10:39;;;;;;;2.70;1.63;;;;;;;13.24;100.00;99326.09;5063325;22;20060;-70
2022/11/04 03:13:14;;;;;;;3.47;1.88;;;;;;;13.18;100.00;99330.41;5009609;28;20493;-70
2022/11/04 03:15:46;;;;;;;4.68;1.90;;;;;;;13.08;100.00;99322.44;5010605;28;20045;-69
2022/11/04 03:18:30;;;;;;;2.42;1.73;;;;;;;13.31;100.00;99338.75;5022193;28;20512;-70
2022/11/04 03:20:59;;;;;;;4.50;2.28;;;;;;;13.41;100.00;99329.75;4995197;28;20133;-70
2022/11/04 03:23:25;;;;;;;5.50;2.60;;;;;;;13.15;100.00;99328.53;4988015;28;20057;-69
2022/11/04 03:25:56;;;;;;;4.78;2.00;;;;;;;13.19;100.00;99321.16;4989410;28;20498;-70
2022/11/04 03:28:29;;;;;;;;;;;;;;;13.17;100.00;99328.13;4984206;28;20030;-70
2022/11/04 03:31:00;;;;;;;2.70;2.03;;;;;;;12.59;100.00;99321.78;5006789;28;19922;-70
2022/11/04 03:33:38;;;;;;;5.85;2.13;;;;;;;12.80;100.00;99325.41;4995976;28;20038;-70
2022/11/04 03:36:24;;;;;;;3.08;1.65;;;;;;;13.08;100.00;99325.91;4991379;28;20038;-69
2022/11/04 03:38:51;;;;;;;4.20;2.00;;;;;;;13.12;100.00;99332.06;4968279;28;20125;-70
2022/11/04 03:41:39;;;;;;;4.93;2.30;;;;;;;12.94;100.00;99317.16;4940433;28;20047;-70
2022/11/04 03:44:05;;;;;;;4.20;2.20;;;;;;;12.93;100.00;99319.09;4949153;28;20058;-71
2022/11/04 03:46:30;;;;;;;4.55;2.42;;;;;;;12.83;100.00;99324.63;4950333;28;20400;-70
2022/11/04 03:48:58;;;;;;;3.33;1.90;;;;;;;12.93;100.00;99338.00;4946799;29;20035;-71
2022/11/04 03:51:24;;;;;;;3.70;2.03;;;;;;;13.11;100.00;99324.31;4961791;28;20031;-70
2022/11/04 03:53:49;;;;;;;2.90;2.05;;;;;;;13.19;100.00;99331.19;4959497;28;20409;-71
2022/11/04 03:56:17;;;;;;;5.18;2.63;;;;;;;13.26;100.00;99328.38;4947778;29;20547;-71
2022/11/04 03:59:27;;;;;;;5.30;2.42;;;;;;;13.25;100.00;99322.22;4941465;29;20039;-70
2022/11/04 04:01:59;;;;;;;5.05;2.85;;;;;;;12.91;100.00;99318.72;4939097;28;20048;-70
2022/11/04 04:04:48;;;;;;;3.47;2.00;;;;;;;13.14;100.00;99326.22;4949671;29;20070;-70
2022/11/04 04:07:19;;;;;;;7.03;2.38;;;;;;;13.25;100.00;99313.34;4950686;29;20047;-70
2022/11/04 04:09:53;;;;;;;5.93;2.17;;;;;;;13.26;100.00;99322.97;4942242;29;20051;-70
2022/11/04 04:12:27;;;;;;;3.25;2.15;;;;;;;13.43;100.00;99330.13;4931761;29;20051;-70
2022/11/04 04:15:16;;;;;;;7.97;3.13;;;;;;;13.43;100.00;99328.16;4943666;28;20049;-70
2022/11/04 04:18:06;;;;;;;8.15;2.80;;;;;;;13.33;100.00;99337.19;4989107;28;20478;-70
2022/11/04 04:20:36;;;;;;;4.60;2.17;;;;;;;13.31;100.00;99334.13;4992747;28;20054;-70
2022/11/04 04:29:06;;;;;;;4.50;2.30;;;;;;;12.99;100.00;99349.91;4979657;28;20451;-70
2022/11/04 04:31:49;;;;;;;2.58;1.58;;;;;;;13.15;100.00;99362.91;4978638;28;20045;-70
2022/11/04 04:34:21;;;;;;;7.65;2.95;;;;;;;13.22;100.00;99373.66;4989916;28;20045;-71
2022/11/04 04:36:57;;;;;;;4.53;2.42;;;;;;;13.19;100.00;99377.91;4989457;28;20509;-70
2022/11/04 04:44:58;;;;;;;7.60;2.25;;;;;;;13.16;100.00;99370.59;4990894;28;20023;-71
2022/11/04 04:47:27;;;;;;;3.25;1.95;;;;;;;13.32;100.00;99384.31;4985599;28;20533;-70
2022/11/04 04:49:57;;;;;;;5.95;1.85;;;;;;;13.34;100.00;99387.38;4982378;28;20044;-70
2022/11/04 04:52:27;;;;;;;3.25;2.33;;;;;;;13.31;100.00;99395.56;4991177;28;20491;-71
2022/11/04 04:54:53;;;;;;;4.15;2.28;;;;;;;13.25;100.00;99406.03;4988592;28;20129;-70
2022/11/04 04:57:18;;;;;;;3.05;1.80;;;;;;;13.43;100.00;99408.56;4985779;28;20133;-71
2022/11/04 04:59:43;;;;;;;4.50;2.40;;;;;;;13.46;100.00;99405.03;4987997;28;20069;-71
2022/11/04 05:02:09;;;;;;;3.03;1.85;;;;;;;13.41;100.00;99402.78;4989689;28;20030;-71
2022/11/04 05:04:34;;;;;;;3.20;1.83;;;;;;;13.43;100.00;99419.38;4988040;28;20084;-70
2022/11/04 05:07:00;;;;;;;5.65;1.75;;;;;;;13.43;100.00;99427.47;4989676;28;20053;-71
2022/11/04 05:09:25;;;;;;;3.28;2.03;;;;;;;13.34;100.00;99421.78;4989836;28;20053;-70
2022/11/04 05:11:50;;;;;;;4.00;2.10;;;;;;;13.27;100.00;99417.22;4986824;28;20039;-70
2022/11/04 05:14:16;;;;;;;2.72;1.58;;;;;;;13.23;100.00;99418.41;4985245;28;20049;-71
2022/11/04 05:16:41;;;;;;;1.85;1.40;;;;;;;13.26;100.00;99423.78;4992772;28;20066;-70
2022/11/04 05:19:07;;;;;;;4.65;2.03;;;;;;;13.47;100.00;99433.63;4992295;28;20131;-70
2022/11/04 05:21:32;;;;;;;4.00;2.22;;;;;;;13.30;100.00;99421.81;4991615;28;20405;-70
2022/11/04 05:23:57;;;;;;;2.75;1.88;;;;;;;13.26;100.00;99428.41;5003858;28;20038;-70
2022/11/04 05:26:23;;;;;;;2.88;1.60;;;;;;;13.28;100.00;99440.38;4993890;28;20410;-70
2022/11/04 05:28:48;;;;;;;8.10;1.98;;;;;;;13.25;100.00;99435.78;4993514;28;20370;-71
2022/11/04 05:31:14;;;;;;;2.47;1.50;;;;;;;13.33;100.00;99439.19;4987733;28;20038;-70
2022/11/04 05:33:39;;;;;;;4.72;2.00;;;;;;;13.41;100.00;99440.63;4999216;28;20038;-70
2022/11/04 05:36:10;;;;;;;4.05;1.52;;;;;;;13.47;100.00;99441.75;4990309;28;20057;-70
2022/11/04 05:38:36;;;;;;;2.22;1.50;;;;;;;13.49;100.00;99452.91;4993269;28;20394;-71
2022/11/04 05:41:02;;;;;;;2.33;1.38;;;;;;;13.41;100.00;99462.28;4990223;28;20048;-71
2022/11/04 05:43:27;;;;;;;2.45;1.60;;;;;;;13.54;100.00;99469.47;4993437;28;20042;-71
2022/11/04 05:45:53;;;;;;;2.70;1.63;;;;;;;13.49;100.00;99471.84;4988438;28;20030;-71
2022/11/04 05:48:19;;;;;;;2.30;1.45;;;;;;;13.51;99.79;99472.97;4990713;28;20049;-70
2022/11/04 05:50:45;;;;;;;2.25;1.58;;;;;;;13.67;100.00;99464.28;4990368;28;20041;-70
2022/11/04 05:53:10;;;;;;;6.95;1.73;;;;;;;13.61;99.77;99474.00;4992754;28;20042;-70
2022/11/04 05:55:35;;;;;;;2.60;1.30;;;;;;;13.70;99.65;99474.31;4980318;28;20035;-71
2022/11/04 05:58:01;;;;;;;2.25;1.40;;;;;;;13.71;99.09;99480.47;4991639;28;20038;-71
2022/11/04 06:00:26;;;;;;;3.55;1.65;;;;;;;13.58;99.28;99485.66;4989253;28;20030;-70
2022/11/04 06:02:55;;;;;;;1.40;1.30;;;;;;;13.57;99.20;99492.22;4984627;28;20056;-72
2022/11/04 06:05:21;;;;;;;2.03;1.52;;;;;;;13.68;98.79;99498.31;4981774;28;20034;-71
2022/11/04 06:07:46;;;;;;;1.58;1.25;;;;;;;13.67;98.33;99504.09;4986415;28;20030;-71
2022/11/04 06:10:12;;;;;;;4.18;1.10;;;;;;;13.58;98.55;99501.88;4988981;28;20487;-71
2022/11/04 06:12:37;;;;;;;1.83;1.35;;;;;;;13.66;98.72;99513.41;4992144;28;20046;-71
2022/11/04 06:15:03;;;;;;;1.73;1.23;;;;;;;13.63;98.10;99503.41;4990736;28;20030;-70
2022/11/04 06:17:28;;;;;;;3.03;1.58;;;;;;;13.64;98.01;99508.41;4989424;28;20113;-70
2022/11/04 06:19:54;;;;;;;2.42;1.30;;;;;;;13.64;98.15;99511.09;4991506;28;20034;-70
2022/11/04 06:22:19;;;;;;;1.58;1.23;;;;;;;13.69;97.72;99518.00;4992113;28;20129;-70
2022/11/04 06:24:45;;;;;;;1.75;1.30;;;;;;;13.67;97.56;99529.22;4989935;28;20045;-70
2022/11/04 06:27:11;;;;;;;1.67;1.13;;;;;;;13.70;97.68;99528.44;4989625;28;20558;-70
2022/11/04 06:29:40;;;;;;;4.97;1.52;;;;;;;13.71;97.65;99529.94;4989534;28;20113;-70
2022/11/04 06:32:11;;;;;;;1.85;1.27;;;;;;;13.64;97.56;99535.44;4988216;28;20041;-70
2022/11/04 06:34:37;;;;;;;2.38;0.85;;;;;;;13.52;97.38;99536.72;4981798;28;20030;-70
2022/11/04 06:37:03;;;;;;;2.00;1.10;;;;;;;13.65;97.62;99542.38;4990635;28;20470;-70
2022/11/04 06:39:32;;;;;;;1.73;1.17;;;;;;;13.45;98.09;99549.56;4986105;28;20153;-71
2022/11/04 06:41:57;;;;;;;1.50;1.17;;;;;;;13.55;97.93;99548.66;4985048;28;20450;-72
2022/11/04 06:44:23;;;;;;;2.00;1.40;;;;;;;13.65;97.81;99550.50;4986533;28;20038;-71
2022/11/04 06:46:49;;;;;;;1.75;1.05;;;;;;;13.66;96.98;99554.75;4990767;28;20074;-71
2022/11/04 06:49:20;;;;;;;1.83;1.20;;;;;;;13.63;96.79;99558.25;4989056;28;20045;-72
2022/11/04 06:51:47;;;;;;;2.70;1.20;;;;;;;13.68;96.90;99552.41;4983553;28;21160;-70
2022/11/04 06:54:13;;;;;;;1.02;0.90;;;;;;;13.67;96.43;99564.41;4988375;28;20463;-71
2022/11/04 06:56:39;;;;;;;2.03;1.30;;;;;;;13.68;96.73;99574.06;4992220;28;20069;-70
2022/11/04 06:59:05;;;;;;;4.05;1.60;;;;;;;13.62;96.19;99564.84;4981704;28;20121;-71
2022/11/04 07:01:34;;;;;;;2.47;1.67;;;;;;;13.59;96.14;99566.41;4984895;28;20022;-71
2022/11/04 07:04:01;;;;;;;1.50;1.10;;;;;;;13.61;95.95;99573.38;4989248;28;20034;-72
2022/11/04 07:06:30;;;;;;;2.03;1.25;;;;;;;13.36;96.57;99570.88;4983841;28;20034;-71
2022/11/04 07:09:01;;;;;;;1.75;1.08;;;;;;;13.37;96.55;99569.72;4989175;28;20122;-70
2022/11/04 07:11:29;;;;;;;1.40;1.05;;;;;;;13.49;95.26;99586.19;4990939;28;20109;-71
2022/11/04 07:13:54;;;;;;;1.23;1.00;;;;;;;13.47;96.22;99590.50;4986926;28;20038;-70
2022/11/04 07:16:20;;;;;;;3.03;1.20;;;;;;;13.52;96.25;99592.75;4991567;28;20084;-70
2022/11/04 07:18:46;;;;;;;2.30;1.45;;;;;;;13.58;95.34;99585.75;4977666;28;20057;-71
2022/11/04 07:21:12;;;;;;;3.75;1.50;;;;;;;13.46;96.02;99602.47;4982498;28;20033;-71
2022/11/04 07:23:38;;;;;;;2.03;1.30;;;;;;;13.53;95.67;99607.81;4989005;28;20206;-71
2022/11/04 07:26:06;;;;;;;2.22;1.30;;;;;;;13.44;95.98;99610.97;4983457;28;20030;-70
2022/11/04 07:28:32;;;;;;;1.98;1.30;;;;;;;13.54;94.74;99612.06;4989405;28;20046;-70
2022/11/04 07:30:59;;;;;;;3.58;1.70;;;;;;;13.46;95.26;99618.69;4989086;28;20042;-70
2022/11/04 07:33:25;;;;;;;2.05;1.33;;;;;;;13.33;95.49;99623.06;4986872;28;20430;-70
2022/11/04 07:35:52;;;;;;;2.00;1.55;;;;;;;13.31;95.87;99630.78;4985646;28;20066;-70
2022/11/04 07:38:18;;;;;;;2.17;1.60;;;;;;;13.40;95.89;99633.81;4989580;28;20041;-71
2022/11/04 07:40:44;;;;;;;3.08;1.40;;;;;;;13.40;95.98;99628.41;4990562;28;20034;-70
2022/11/04 07:43:09;;;;;;;2.25;1.50;;;;;;;13.43;95.39;99633.78;4987420;28;20034;-71
2022/11/04 07:45:36;;;;;;;9.63;1.80;;;;;;;13.20;96.04;99638.97;4989469;28;20288;-70
2022/11/04 07:48:02;;;;;;;3.35;1.50;;;;;;;13.18;96.48;99652.13;4990753;28;20372;-71
2022/11/04 07:50:27;;;;;;;1.90;1.33;;;;;;;13.36;95.92;99639.25;4989882;28;20042;-70
2022/11/04 07:52:53;;;;;;;2.78;1.80;;;;;;;13.47;95.02;99621.00;4987654;28;20514;-70
2022/11/04 07:55:18;;;;;;;4.13;2.15;;;;;;;13.32;94.60;99629.63;4988232;28;20049;-71
2022/11/04 07:57:45;;;;;;;2.95;1.60;;;;;;;13.40;95.07;99625.69;4989647;28;20038;-70
2022/11/04 08:00:11;;;;;;;1.70;1.33;;;;;;;13.51;94.20;99631.81;4985779;28;20027;-70
2022/11/04 08:02:40;;;;;;;2.83;1.88;;;;;;;13.45;94.26;99633.41;4992850;28;20066;-70
2022/11/04 08:05:06;;;;;;;4.03;2.03;;;;;;;13.51;94.35;99635.25;4978276;28;20046;-70
2022/11/04 08:07:31;;;;;;;3.67;2.25;;;;;;;13.61;93.77;99636.34;4975568;28;20072;-70
2022/11/04 08:09:57;;;;;;;2.53;2.03;;;;;;;13.64;93.40;99640.97;4990048;28;20069;-70
2022/11/04 08:12:23;;;;;;;4.72;2.17;;;;;;;13.46;93.11;99637.63;4979375;28;20043;-70
2022/11/04 08:14:49;;;;;;;6.35;1.85;;;;;;;13.53;93.37;99642.97;4980434;28;20034;-71
2022/11/04 08:17:15;;;;;;;3.72;2.22;;;;;;;13.27;94.12;99651.69;4987414;28;20066;-71
2022/11/04 08:19:40;;;;;;;2.60;1.77;;;;;;;13.33;94.45;99653.56;4981515;28;20046;-70
2022/11/04 08:22:07;;;;;;;4.50;2.10;;;;;;;13.35;94.09;99653.94;4970138;28;20035;-71
2022/11/04 08:24:33;;;;;;;2.60;1.65;;;;;;;13.50;93.83;99655.38;4970583;28;20407;-70
2022/11/04 08:26:58;;;;;;;3.95;2.17;;;;;;;13.39;94.07;99657.38;4971755;28;20038;-70
2022/11/04 08:29:23;;;;;;;4.25;1.90;;;;;;;13.61;93.46;99652.56;4970876;28;20083;-71
2022/11/04 08:31:49;;;;;;;3.25;1.83;;;;;;;13.66;92.47;99652.16;4972219;28;20097;-71
2022/11/04 08:34:17;;;;;;;3.33;2.10;;;;;;;13.72;92.29;99649.78;4976656;28;20031;-70
2022/11/04 08:36:43;;;;;;;4.60;1.98;;;;;;;13.73;91.69;99660.19;4971703;28;20042;-70
2022/11/04 08:39:09;;;;;;;3.00;1.63;;;;;;;13.81;91.61;99666.31;4985772;28;20042;-71
2022/11/04 08:41:36;;;;;;;4.20;2.00;;;;;;;13.49;91.98;99669.31;4971136;28;20042;-71
2022/11/04 08:44:03;;;;;;;3.20;1.98;;;;;;;13.67;91.71;99663.72;4976134;28;20039;-71
2022/11/04 08:46:32;;;;;;;3.75;1.83;;;;;;;13.58;92.00;99672.31;4983920;28;20038;-70
2022/11/04 08:48:58;;;;;;;3.05;1.85;;;;;;;13.61;91.87;99687.00;5007039;28;20414;-71
2022/11/04 08:51:25;;;;;;;3.20;1.63;;;;;;;13.57;91.79;99676.19;4993793;28;20038;-71
2022/11/04 08:53:51;;;;;;;4.07;1.73;;;;;;;13.52;91.99;99690.13;4985778;28;20022;-71
2022/11/04 08:56:18;;;;;;;3.20;1.95;;;;;;;13.73;91.89;99681.84;4980543;28;20361;-71
2022/11/04 08:58:44;;;;;;;4.68;1.98;;;;;;;13.76;91.36;99686.47;4974987;28;20042;-71
2022/11/04 09:01:09;;;;;;;4.50;2.15;;;;;;;13.67;91.68;99690.78;4977013;28;20122;-71
2022/11/04 09:03:37;;;;;;;2.97;2.03;;;;;;;13.69;91.38;99688.44;4991681;28;20046;-70
2022/11/04 09:06:12;;;;;;;3.08;1.80;;;;;;;13.69;91.33;99688.44;5008951;28;20042;-70
2022/11/04 09:08:38;;;;;;;3.65;1.80;;;;;;;13.86;91.11;99682.88;4983662;28;20027;-70
2022/11/04 09:11:09;;;;;;;1.98;1.45;;;;;;;13.85;91.14;99689.50;5023326;23;20522;-65
2022/11/04 09:13:35;;;;;;;2.05;1.58;;;;;;;13.91;90.81;99696.00;5000256;28;20486;-65
2022/11/04 09:16:01;;;;;;;4.00;1.67;;;;;;;13.79;90.85;99699.19;4990804;28;20030;-66
2022/11/04 09:18:28;;;;;;;3.40;2.20;;;;;;;13.84;90.18;99700.72;4996461;28;20084;-66
2022/11/04 09:20:54;;;;;;;3.45;1.90;;;;;;;13.96;89.74;99703.69;5010045;28;20034;-66
2022/11/04 09:23:19;;;;;;;3.10;1.88;;;;;;;13.92;89.24;99704.88;4994173;28;20795;-65
2022/11/04 09:25:45;;;;;;;1.73;1.48;;;;;;;14.10;89.17;99703.56;4992487;28;20038;-65
2022/11/04 09:28:10;;;;;;;4.57;2.03;;;;;;;14.04;89.02;99701.69;4975022;28;20377;-66
2022/11/04 09:30:36;;;;;;;3.00;1.67;;;;;;;14.38;88.71;99716.09;4989663;28;20037;-65
2022/11/04 09:33:02;;;;;;;5.28;2.13;;;;;;;14.47;86.96;99710.97;4987253;28;20552;-65
2022/11/04 09:35:27;;;;;;;4.38;2.10;;;;;;;14.44;86.04;99717.94;4978200;28;20039;-65
2022/11/04 09:37:53;;;;;;;3.17;1.83;;;;;;;14.50;85.84;99718.25;5007690;28;20479;-65
2022/11/04 09:40:22;;;;;;;1.90;1.58;;;;;;;14.61;85.39;99718.16;4991109;28;20499;-65
2022/11/04 09:42:57;;;;;;;2.05;1.35;;;;;;;14.66;86.26;99718.47;4992976;28;20074;-65
2022/11/04 09:45:27;;;;;;;2.10;1.60;;;;;;;14.57;85.16;99720.13;4989360;28;20038;-65
2022/11/04 09:48:00;;;;;;;2.55;1.67;;;;;;;14.56;85.02;99713.16;4991725;28;20562;-65
2022/11/04 09:50:30;;;;;;;1.92;1.40;;;;;;;14.78;84.49;99728.03;4990472;28;20038;-66
2022/11/04 09:53:04;;;;;;;2.03;1.60;;;;;;;14.81;84.41;99746.16;4993187;28;20037;-65
2022/11/04 09:56:04;;;;;;;2.28;1.23;;;;;;;14.99;83.54;99746.75;4991111;28;20028;-65
2022/11/04 09:58:37;;;;;;;2.17;1.33;;;;;;;15.22;82.69;99738.69;4950504;29;20059;-66
2022/11/04 10:01:09;;;;;;;2.13;1.25;;;;;;;15.19;82.19;99739.50;4949886;28;20114;-66
2022/11/04 10:03:48;;;;;;;2.00;1.30;;;;;;;14.98;82.20;99745.22;4958118;28;20070;-66
2022/11/04 10:06:51;;;;;;;2.28;1.30;;;;;;;14.95;81.90;99751.44;4934998;29;20074;-66
2022/11/04 10:09:33;;;;;;;2.45;1.48;;;;;;;15.05;82.02;99753.25;4947871;28;20389;-66
2022/11/04 10:12:20;;;;;;;2.08;0.95;;;;;;;15.18;82.50;99748.81;4936271;28;20054;-66
2022/11/04 10:15:03;;;;;;;1.42;1.00;;;;;;;15.00;82.22;99751.00;4952001;28;20031;-66
2022/11/04 10:17:34;;;;;;;1.73;0.98;;;;;;;14.93;83.46;99735.56;4951267;28;20027;-67
2022/11/04 10:20:02;;;;;;;1.48;1.05;;;;;;;14.94;82.29;99737.09;4947173;28;20134;-66
2022/11/04 10:22:37;;;;;;;1.52;0.80;;;;;;;14.78;82.61;99734.22;4948079;28;20059;-66
2022/11/04 10:25:21;;;;;;;1.88;1.00;;;;;;;14.66;82.75;99736.69;4948714;28;20101;-66
2022/11/04 10:27:47;;;;;;;4.03;1.15;;;;;;;14.71;82.78;99731.56;4947310;28;20039;-66
2022/11/04 10:30:19;;;;;;;1.27;1.00;;;;;;;14.63;83.39;99719.31;4947435;28;20043;-66
2022/11/04 10:33:02;;;;;;;1.10;0.80;;;;;;;14.72;83.29;99729.63;4936050;29;20039;-66
2022/11/04 10:35:56;;;;;;;1.45;1.10;;;;;;;14.86;82.12;99721.34;4957833;28;20565;-66
2022/11/04 10:38:57;;;;;;;1.15;0.85;;;;;;;14.77;82.02;99729.22;4990467;28;20529;-66
2022/11/04 10:41:23;;;;;;;;;;;;;;;14.89;82.29;99726.72;4949733;28;20130;-66
2022/11/04 10:43:51;;;;;;;2.53;1.35;;;;;;;15.01;81.85;99733.53;4986987;28;20013;-66
2022/11/04 10:46:27;;;;;;;1.52;0.80;;;;;;;15.02;81.69;99732.38;4992910;28;20464;-66
2022/11/04 10:49:07;;;;;;;1.27;0.95;;;;;;;14.91;81.48;99727.09;4991609;28;20498;-66
2022/11/04 10:51:32;;;;;;;1.40;0.77;;;;;;;15.06;81.89;99730.41;4983376;28;20038;-65
2022/11/04 10:54:01;;;;;;;2.58;1.25;;;;;;;15.13;81.29;99730.28;4989165;28;20491;-66
2022/11/04 10:56:40;;;;;;;3.10;0.95;;;;;;;14.99;80.74;99738.59;4992129;28;20038;-66
2022/11/04 10:59:12;;;;;;;1.20;0.93;;;;;;;14.86;81.30;99743.03;4989771;28;20026;-66
2022/11/04 11:01:47;;;;;;;2.10;1.23;;;;;;;15.11;80.73;99744.28;4989302;28;20113;-66
2022/11/04 11:04:24;;;;;;;0.88;0.82;;;;;;;15.18;80.41;99757.72;4990657;28;20026;-65
2022/11/04 11:06:51;;;;;;;2.63;1.00;;;;;;;15.05;80.06;99750.53;4986464;28;20483;-66
2022/11/04 11:09:41;;;;;;;2.55;1.05;;;;;;;15.02;81.03;99756.78;4994448;28;20696;-66
2022/11/04 11:12:13;;;;;;;2.20;1.38;;;;;;;15.03;81.14;99761.03;4989356;28;20092;-66
2022/11/04 11:14:40;;;;;;;2.70;1.13;;;;;;;15.04;80.94;99771.47;4988614;28;20038;-65
2022/11/04 11:17:15;;;;;;;2.28;1.05;;;;;;;15.07;80.69;99773.38;4990101;28;20674;-66
2022/11/04 11:19:51;;;;;;;1.40;0.95;;;;;;;15.01;80.41;99777.72;4992983;28;20411;-66
2022/11/04 11:22:35;;;;;;;1.42;0.80;;;;;;;15.24;80.16;99791.38;4985769;28;20156;-65
2022/11/04 11:25:24;;;;;;;1.42;1.20;;;;;;;15.10;79.37;99809.75;4987299;28;20038;-65
2022/11/04 11:28:01;;;;;;;1.77;1.30;;;;;;;15.01;79.94;99820.31;4986863;28;20096;-65
2022/11/04 11:30:36;;;;;;;2.28;1.20;;;;;;;15.08;80.33;99817.50;4992091;28;20062;-66
2022/11/04 11:33:14;;;;;;;1.48;0.98;;;;;;;15.12;80.25;99815.53;4988269;28;20037;-66
2022/11/04 11:35:50;;;;;;;2.72;1.05;;;;;;;15.22;80.31;99806.50;4990118;28;20045;-65
2022/11/04 11:38:23;;;;;;;2.22;1.17;;;;;;;15.32;80.24;99814.53;4989314;28;20027;-65
2022/11/04 11:40:51;;;;;;;1.13;0.80;;;;;;;15.39;78.81;99819.06;4990411;28;20034;-66
2022/11/04 11:43:26;;;;;;;1.88;0.90;;;;;;;15.36;79.68;99812.53;4991070;28;20486;-65
2022/11/04 11:45:56;;;;;;;2.55;1.55;;;;;;;15.58;79.11;99815.00;4991076;28;20120;-65
2022/11/04 11:48:28;;;;;;;1.50;0.85;;;;;;;15.61;78.97;99809.50;4991927;28;20101;-65
2022/11/04 11:50:59;;;;;;;1.50;1.00;;;;;;;15.59;77.98;99809.16;4990358;28;20050;-65
2022/11/04 11:53:29;;;;;;;1.70;1.00;;;;;;;15.65;77.58;99809.47;4990612;28;20053;-65
2022/11/04 11:56:09;;;;;;;1.70;0.90;;;;;;;15.70;77.86;99806.31;4993627;28;20038;-65
2022/11/04 11:58:45;;;;;;;1.48;0.95;;;;;;;15.73;78.35;99810.91;4991526;28;20387;-64
2022/11/04 12:01:29;;;;;;;1.17;0.73;;;;;;;15.67;77.92;99805.16;4983937;28;20084;-64
2022/11/04 12:03:55;;;;;;;1.25;0.90;;;;;;;15.63;78.07;99811.81;4996716;28;20030;-64
2022/11/04 12:06:35;;;;;;;1.00;0.77;;;;;;;15.77;77.75;99806.97;4993191;28;20485;-65
2022/11/04 12:09:22;;;;;;;0.93;0.80;;;;;;;15.80;78.09;99806.13;4987121;28;20054;-65
2022/11/04 12:12:03;;;;;;;1.77;0.82;;;;;;;15.81;77.33;99806.91;4986002;28;20030;-65
2022/11/04 12:14:51;;;;;;;1.00;0.70;;;;;;;15.86;77.32;99804.50;4986670;28;20081;-65
2022/11/04 12:17:40;;;;;;;2.95;0.80;;;;;;;15.87;76.62;99803.28;4991410;28;20118;-65
2022/11/04 12:20:25;;;;;;;2.20;0.88;;;;;;;15.64;76.21;99807.94;4989047;28;20085;-65